Accueil
METAR-TAF:

METAR-TAF

Aéroports :

Aéroport Franjo-Tuđman de Zagreb

Zagreb, Croatie

latitude: 45-44N, longitude: 016-04E, altitude: 106 m

Observation

Le bulletin a été fait il y a 14 minutes, à 22:00 UTC
Vent 4 kt de ouest/sud-ouest
Température 8°C
Humidité 81%
Pression 1027 hPa
Visibilité 10 km ou plus
pas de nuages en-dessous de 1500 mètres et pas de cumulonimbus.

METAR: LDZA 192200Z 25004KT CAVOK 08/05 Q1027 NOSIG

Heure: 00:14 (22:14 UTC)

Prévision

Le bulletin a été fait il y a 4 heures et 49 minutes, à 17:25 UTC
Prévision valable du 19 à 18 UTC au 20 à 18 UTC
Vent 2 kt de direction variable
Visibilité 10 km ou plus
pas de nuages en-dessous de 1500 mètres et pas de cumulonimbus.
Temporairement
du 20 à 03 UTC au 20 à 16 UTC
Vent 9 kt de nord-est

TAF: LDZA 191725Z 1918/2018 VRB02KT CAVOK TX21/2014Z TN05/2006Z TEMPO 2003/2016 05009KT

Observations et prévisions météorologiques de plus de 4000 aéroports (messages METAR et TAF).

Les stations disponibles sont représentées par des disques jaunes et rouges sur la carte.

Passer la souris dessus pour voir le nom de la station.

Cliquer dessus pour voir les observations et prévisions météorologiques.

Pour changer de carte: cliquez sur les boutons verts avec une croix noire pour zoomer, sur le bouton vert avec un tiret pour effectuer un zoom arrière, ou sur les flèches vertes pour les cartes adjacentes.


METAR-TAF: